createdAt,value
2017-01-02T00:00:13.063Z,954.12
2017-01-02T00:01:13.087Z,954.09
2017-01-02T00:02:13.086Z,954.09
2017-01-02T00:03:13.099Z,954.11
2017-01-02T00:04:13.109Z,954.11
2017-01-02T00:05:13.120Z,954.07
2017-01-02T00:06:13.132Z,954.07
2017-01-02T00:07:13.143Z,954.03
2017-01-02T00:08:13.155Z,954.02
2017-01-02T00:09:13.167Z,954.02
2017-01-02T00:10:13.178Z,954.05
2017-01-02T00:11:13.190Z,954.05
2017-01-02T00:12:13.202Z,954.05
2017-01-02T00:13:13.213Z,954.08
2017-01-02T00:14:13.224Z,954.08
2017-01-02T00:15:13.236Z,954.13
2017-01-02T00:16:13.248Z,954.13
2017-01-02T00:17:13.281Z,954.08
2017-01-02T00:18:13.271Z,954.09
2017-01-02T00:19:13.333Z,954.11
2017-01-02T00:20:13.296Z,954.09
2017-01-02T00:21:13.305Z,954.1
2017-01-02T00:22:13.322Z,954.06
2017-01-02T00:23:13.329Z,954.06
2017-01-02T00:24:13.347Z,954.02
2017-01-02T00:25:13.353Z,954.05
2017-01-02T00:26:13.364Z,954.03
2017-01-02T00:27:13.375Z,954.03
2017-01-02T00:28:13.387Z,954
2017-01-02T00:29:13.448Z,953.99
2017-01-02T00:30:13.410Z,954
2017-01-02T00:31:13.426Z,954.02
2017-01-02T00:32:13.436Z,954
2017-01-02T00:33:13.448Z,954.03
2017-01-02T00:34:13.458Z,954.04
2017-01-02T00:35:13.469Z,953.99
2017-01-02T00:36:13.481Z,954.03
2017-01-02T00:37:13.493Z,954.07
2017-01-02T00:38:13.505Z,954.09
2017-01-02T00:39:13.515Z,954.05
2017-01-02T00:40:13.527Z,954.04
2017-01-02T00:41:13.541Z,954.06
2017-01-02T00:42:13.550Z,954.06
2017-01-02T00:43:13.561Z,954.09
2017-01-02T00:44:13.573Z,954.05
2017-01-02T00:45:13.601Z,954.06
2017-01-02T00:46:13.596Z,954.03
2017-01-02T00:47:13.606Z,954.1
2017-01-02T00:48:13.619Z,954.08
2017-01-02T00:49:13.630Z,954.11
2017-01-02T00:50:13.641Z,954.05
2017-01-02T00:51:13.652Z,954.05
2017-01-02T00:52:13.666Z,954.05
2017-01-02T00:53:13.675Z,954.05
2017-01-02T00:54:13.686Z,954.06
2017-01-02T00:55:13.698Z,954.07
2017-01-02T00:56:13.710Z,954.02
2017-01-02T00:57:13.720Z,954.02
2017-01-02T00:58:13.732Z,953.98
2017-01-02T00:59:13.747Z,953.99
2017-01-02T01:00:13.753Z,953.95
2017-01-02T01:01:13.765Z,953.98
2017-01-02T01:02:13.776Z,953.92
2017-01-02T01:03:13.787Z,953.93
2017-01-02T01:04:13.798Z,953.96
2017-01-02T01:05:13.809Z,953.96
2017-01-02T01:06:13.820Z,953.93
2017-01-02T01:07:13.832Z,953.95
2017-01-02T01:08:13.842Z,953.98
2017-01-02T01:09:13.854Z,954.08
2017-01-02T01:10:13.864Z,954.01
2017-01-02T01:11:13.877Z,954.05
2017-01-02T01:12:13.886Z,954.1
2017-01-02T01:13:13.897Z,954.11
2017-01-02T01:14:13.909Z,954.16
2017-01-02T01:15:13.918Z,954.15
2017-01-02T01:16:13.929Z,954.18
2017-01-02T01:17:13.940Z,954.22
2017-01-02T01:18:13.952Z,954.19
2017-01-02T01:19:13.962Z,954.23
2017-01-02T01:20:13.975Z,954.25
2017-01-02T01:21:13.985Z,954.21
2017-01-02T01:22:13.995Z,954.21
2017-01-02T01:23:14.005Z,954.24
2017-01-02T01:24:14.016Z,954.23
2017-01-02T01:25:14.030Z,954.21
2017-01-02T01:26:14.038Z,954.21
2017-01-02T01:27:14.059Z,954.22
2017-01-02T01:28:14.061Z,954.23
2017-01-02T01:29:14.079Z,954.24
2017-01-02T01:30:14.082Z,954.23
2017-01-02T01:31:14.095Z,954.19
2017-01-02T01:32:14.103Z,954.23
2017-01-02T01:33:14.115Z,954.22
2017-01-02T01:34:14.124Z,954.18
2017-01-02T01:35:14.159Z,954.17
2017-01-02T01:36:14.147Z,954.16
2017-01-02T01:37:14.157Z,954.12
2017-01-02T01:38:14.167Z,954.11
2017-01-02T01:39:14.177Z,954.14
2017-01-02T01:40:14.190Z,954.11
2017-01-02T01:41:14.200Z,954.12
2017-01-02T01:42:14.215Z,954.09
2017-01-02T01:43:14.224Z,954.08
2017-01-02T01:44:14.231Z,954.09
2017-01-02T01:45:14.242Z,954.14
2017-01-02T01:46:14.253Z,954.12
2017-01-02T01:47:14.264Z,954.12
2017-01-02T01:48:14.274Z,954.13
2017-01-02T01:49:14.285Z,954.12
2017-01-02T01:50:14.297Z,954.11
2017-01-02T01:51:14.307Z,954.07
2017-01-02T01:52:14.317Z,954.07
2017-01-02T01:53:14.327Z,954.09
2017-01-02T01:54:14.339Z,954.09
2017-01-02T01:55:14.349Z,954.08
2017-01-02T01:56:14.362Z,954.07
2017-01-02T01:57:14.370Z,954.06
2017-01-02T01:58:14.381Z,954.06
2017-01-02T01:59:14.391Z,954.08
2017-01-02T02:00:14.403Z,954.05
2017-01-02T02:01:14.413Z,954.03
2017-01-02T02:02:14.424Z,954.07
2017-01-02T02:03:14.434Z,954.09
2017-01-02T02:04:14.445Z,954.06
2017-01-02T02:05:14.454Z,954.06
2017-01-02T02:06:14.466Z,954.09
2017-01-02T02:07:14.478Z,954.07
2017-01-02T02:08:14.488Z,954.05
2017-01-02T02:09:14.499Z,954.08
2017-01-02T02:10:14.510Z,954.07
2017-01-02T02:11:14.520Z,954.06
2017-01-02T02:12:14.533Z,954.06
2017-01-02T02:13:14.542Z,954.02
2017-01-02T02:14:14.553Z,954.02
2017-01-02T02:15:14.563Z,954.01
2017-01-02T02:16:14.574Z,954
2017-01-02T02:17:14.607Z,954.02
2017-01-02T02:18:14.595Z,953.98
2017-01-02T02:19:14.606Z,954
2017-01-02T02:20:14.617Z,954.03
2017-01-02T02:21:14.627Z,954.03
2017-01-02T02:22:14.638Z,954.02
2017-01-02T02:23:14.649Z,954.03
2017-01-02T02:24:14.666Z,954.03
2017-01-02T02:25:14.672Z,954.08
2017-01-02T02:26:14.681Z,954.02
2017-01-02T02:27:14.692Z,954.02
2017-01-02T02:28:14.703Z,954.02
2017-01-02T02:29:14.713Z,954.04
2017-01-02T02:30:14.728Z,954.05
2017-01-02T02:31:14.737Z,954.05
2017-01-02T02:32:14.745Z,954.07
2017-01-02T02:33:14.757Z,954.04
2017-01-02T02:34:14.771Z,954.03
2017-01-02T02:35:14.779Z,954.05
2017-01-02T02:36:14.788Z,954.05
2017-01-02T02:37:14.834Z,954.04
2017-01-02T02:38:14.824Z,954.06
2017-01-02T02:39:14.821Z,954.06
2017-01-02T02:40:14.833Z,954.04
2017-01-02T02:41:14.845Z,954.06
2017-01-02T02:42:14.855Z,954.07
2017-01-02T02:43:14.865Z,954.06
2017-01-02T02:44:14.876Z,954.05
2017-01-02T02:45:14.888Z,954.03
2017-01-02T02:46:14.900Z,954.04
2017-01-02T02:47:14.909Z,954.04
2017-01-02T02:48:14.921Z,954.02
2017-01-02T02:49:14.931Z,954.02
2017-01-02T02:50:14.943Z,954.02
2017-01-02T02:51:14.955Z,954.03
2017-01-02T02:52:14.966Z,954.02
2017-01-02T02:53:14.978Z,954.01
2017-01-02T02:54:14.989Z,954.02
2017-01-02T02:55:15.003Z,954.03
2017-01-02T02:56:15.012Z,954.01
2017-01-02T02:57:15.023Z,954.03
2017-01-02T02:58:15.033Z,954.05
2017-01-02T02:59:15.046Z,954.05
2017-01-02T03:00:15.059Z,954.04
2017-01-02T03:01:15.068Z,954.05
2017-01-02T03:02:15.080Z,954.03
2017-01-02T03:03:15.091Z,954.05
2017-01-02T03:04:15.103Z,954.01
2017-01-02T03:05:15.113Z,954.09
2017-01-02T03:06:15.125Z,954.05
2017-01-02T03:07:15.152Z,954.06
2017-01-02T03:08:15.149Z,954.04
2017-01-02T03:09:15.161Z,954.1
2017-01-02T03:10:15.171Z,954.09
2017-01-02T03:11:15.183Z,954.06
2017-01-02T03:12:15.194Z,954.09
2017-01-02T03:13:15.206Z,954.11
2017-01-02T03:14:15.218Z,954.08
2017-01-02T03:15:15.230Z,954.08
2017-01-02T03:16:15.239Z,954.1
2017-01-02T03:17:15.251Z,954.11
2017-01-02T03:18:15.263Z,954.07
2017-01-02T03:19:15.274Z,954.08
2017-01-02T03:20:15.285Z,954.05
2017-01-02T03:21:15.297Z,954.04
2017-01-02T03:22:15.308Z,954.06
2017-01-02T03:23:15.318Z,953.99
2017-01-02T03:24:15.330Z,954.02
2017-01-02T03:25:15.341Z,954.01
2017-01-02T03:26:15.353Z,953.99
2017-01-02T03:27:15.361Z,954
2017-01-02T03:28:15.376Z,953.93
2017-01-02T03:29:15.386Z,953.96
2017-01-02T03:30:15.398Z,953.93
2017-01-02T03:31:15.408Z,953.93
2017-01-02T03:32:15.418Z,953.91
2017-01-02T03:33:15.431Z,953.94
2017-01-02T03:34:15.441Z,953.9
2017-01-02T03:35:15.472Z,953.91
2017-01-02T03:36:15.464Z,953.86
2017-01-02T03:37:15.476Z,953.82
2017-01-02T03:38:15.485Z,953.86
2017-01-02T03:39:15.496Z,953.86
2017-01-02T03:40:15.507Z,953.84
2017-01-02T03:41:15.519Z,953.87
2017-01-02T03:42:15.538Z,953.87
2017-01-02T03:43:15.540Z,953.9
2017-01-02T03:44:15.552Z,953.91
2017-01-02T03:45:15.562Z,953.92
2017-01-02T03:46:15.574Z,953.88
2017-01-02T03:47:15.589Z,953.92
2017-01-02T03:48:15.596Z,953.95
2017-01-02T03:49:15.607Z,953.89
2017-01-02T03:50:15.617Z,953.9
2017-01-02T03:51:15.628Z,953.93
2017-01-02T03:52:15.638Z,953.93
2017-01-02T03:53:15.648Z,953.93
2017-01-02T03:54:15.660Z,953.91
2017-01-02T03:55:15.670Z,953.89
2017-01-02T03:56:15.681Z,953.87
2017-01-02T03:57:15.691Z,953.85
2017-01-02T03:58:15.703Z,953.83
2017-01-02T03:59:15.714Z,953.81
2017-01-02T04:00:15.724Z,953.84
2017-01-02T04:01:15.735Z,953.82
2017-01-02T04:02:15.746Z,953.81
2017-01-02T04:03:15.755Z,953.83
2017-01-02T04:04:15.766Z,953.84
2017-01-02T04:05:15.776Z,953.87
2017-01-02T04:06:15.788Z,953.9
2017-01-02T04:07:15.798Z,953.9
2017-01-02T04:08:15.808Z,953.92
2017-01-02T04:09:15.818Z,953.9
2017-01-02T04:10:15.829Z,953.86
2017-01-02T04:11:15.839Z,953.9
2017-01-02T04:12:15.869Z,953.95
2017-01-02T04:13:15.861Z,953.9
2017-01-02T04:14:15.870Z,953.86
2017-01-02T04:15:15.881Z,953.9
2017-01-02T04:16:15.892Z,953.92
2017-01-02T04:17:15.903Z,953.91
2017-01-02T04:18:15.913Z,953.89
2017-01-02T04:19:15.923Z,953.87
2017-01-02T04:20:15.933Z,953.87
2017-01-02T04:21:15.944Z,953.86
2017-01-02T04:22:15.954Z,953.9
2017-01-02T04:23:15.963Z,953.93
2017-01-02T04:24:15.975Z,953.95
2017-01-02T04:25:15.984Z,953.96
2017-01-02T04:26:15.995Z,953.91
2017-01-02T04:27:16.005Z,953.94
2017-01-02T04:28:16.016Z,953.93
2017-01-02T04:29:16.025Z,953.93
2017-01-02T04:30:16.035Z,953.94
2017-01-02T04:31:16.050Z,953.94
2017-01-02T04:32:16.058Z,953.92
2017-01-02T04:33:16.069Z,953.89
2017-01-02T04:34:16.077Z,953.91
2017-01-02T04:35:16.088Z,953.9
2017-01-02T04:36:16.097Z,953.87
2017-01-02T04:37:16.108Z,953.88
2017-01-02T04:38:16.118Z,953.84
2017-01-02T04:39:16.152Z,953.84
2017-01-02T04:40:16.138Z,953.77
2017-01-02T04:41:16.149Z,953.81
2017-01-02T04:42:16.159Z,953.81
2017-01-02T04:43:16.169Z,953.82
2017-01-02T04:44:16.179Z,953.79
2017-01-02T04:45:16.190Z,953.8
2017-01-02T04:46:16.217Z,953.8
2017-01-02T04:47:16.211Z,953.81
2017-01-02T04:48:16.220Z,953.82
2017-01-02T04:49:16.230Z,953.75
2017-01-02T04:50:16.242Z,953.76
2017-01-02T04:51:16.250Z,953.77
2017-01-02T04:52:16.259Z,953.81
2017-01-02T04:53:16.281Z,953.79
2017-01-02T04:54:16.282Z,953.8
2017-01-02T04:55:16.290Z,953.81
2017-01-02T04:56:16.301Z,953.85
2017-01-02T04:57:16.311Z,953.83
2017-01-02T04:58:16.321Z,953.82
2017-01-02T04:59:16.331Z,953.85
2017-01-02T05:00:16.346Z,953.89
2017-01-02T05:01:16.352Z,953.96
2017-01-02T05:02:16.362Z,953.88
2017-01-02T05:03:16.371Z,953.93
2017-01-02T05:04:16.382Z,953.88
2017-01-02T05:05:16.392Z,953.87
2017-01-02T05:06:16.401Z,953.87
2017-01-02T05:07:16.413Z,953.84
2017-01-02T05:08:16.421Z,953.89
2017-01-02T05:09:16.430Z,953.9
2017-01-02T05:10:16.441Z,953.86
2017-01-02T05:11:16.452Z,953.88
2017-01-02T05:12:16.461Z,953.95
2017-01-02T05:13:16.471Z,953.94
2017-01-02T05:14:16.480Z,953.96
2017-01-02T05:15:16.491Z,954.01
2017-01-02T05:16:16.501Z,953.96
2017-01-02T05:17:16.512Z,953.99
2017-01-02T05:18:16.521Z,954
2017-01-02T05:19:16.531Z,954.02
2017-01-02T05:20:16.542Z,953.98
2017-01-02T05:21:16.553Z,954.01
2017-01-02T05:22:16.561Z,954.05
2017-01-02T05:23:16.571Z,953.99
2017-01-02T05:24:16.582Z,954.04
2017-01-02T05:25:16.591Z,953.99
2017-01-02T05:26:16.601Z,953.94
2017-01-02T05:27:16.611Z,953.97
2017-01-02T05:28:16.621Z,953.93
2017-01-02T05:29:16.631Z,953.93
2017-01-02T05:30:16.641Z,953.88
2017-01-02T05:31:16.651Z,953.93
2017-01-02T05:32:16.660Z,953.91
2017-01-02T05:33:16.671Z,953.89
2017-01-02T05:34:16.680Z,953.88
2017-01-02T05:35:16.690Z,953.87
2017-01-02T05:36:16.701Z,953.95
2017-01-02T05:37:16.711Z,953.93
2017-01-02T05:38:16.719Z,953.94
2017-01-02T05:39:16.730Z,953.96
2017-01-02T05:40:16.740Z,953.96
2017-01-02T05:41:16.749Z,954.02
2017-01-02T05:42:16.760Z,953.96
2017-01-02T05:43:16.771Z,953.96
2017-01-02T05:44:16.781Z,953.98
2017-01-02T05:45:16.791Z,953.96
2017-01-02T05:46:16.800Z,953.95
2017-01-02T05:47:16.810Z,953.94
2017-01-02T05:48:16.820Z,953.99
2017-01-02T05:49:16.830Z,953.98
2017-01-02T05:50:16.840Z,954.02
2017-01-02T05:51:16.850Z,954.02
2017-01-02T05:52:16.861Z,954.03
2017-01-02T05:53:16.869Z,954.1
2017-01-02T05:54:16.879Z,954.08
2017-01-02T05:55:16.889Z,954.11
2017-01-02T05:56:16.902Z,954.12
2017-01-02T05:57:16.910Z,954.12
2017-01-02T05:58:16.919Z,954.15
2017-01-02T05:59:16.930Z,954.17
2017-01-02T06:00:16.940Z,954.14
2017-01-02T06:01:16.950Z,954.15
2017-01-02T06:02:16.959Z,954.15
2017-01-02T06:03:16.969Z,954.15
2017-01-02T06:04:16.978Z,954.14
2017-01-02T06:05:16.988Z,954.14
2017-01-02T06:06:16.999Z,954.16
2017-01-02T06:07:17.008Z,954.22
2017-01-02T06:08:17.017Z,954.2
2017-01-02T06:09:17.028Z,954.2
2017-01-02T06:10:17.056Z,954.2
2017-01-02T06:11:17.046Z,954.22
2017-01-02T06:12:17.056Z,954.28
2017-01-02T06:13:17.072Z,954.32
2017-01-02T06:14:17.076Z,954.23
2017-01-02T06:15:17.084Z,954.22
2017-01-02T06:16:17.095Z,954.23
2017-01-02T06:17:17.124Z,954.2
2017-01-02T06:18:17.115Z,954.23
2017-01-02T06:19:17.126Z,954.25
2017-01-02T06:20:17.133Z,954.25
2017-01-02T06:21:17.144Z,954.26
2017-01-02T06:22:17.154Z,954.24
2017-01-02T06:23:17.164Z,954.22
2017-01-02T06:24:17.188Z,954.24
2017-01-02T06:25:17.184Z,954.24
2017-01-02T06:26:17.193Z,954.26
2017-01-02T06:27:17.203Z,954.25
2017-01-02T06:28:17.213Z,954.28
2017-01-02T06:29:17.223Z,954.27
2017-01-02T06:30:17.232Z,954.25
2017-01-02T06:31:17.253Z,954.27
2017-01-02T06:32:17.252Z,954.25
2017-01-02T06:33:17.262Z,954.29
2017-01-02T06:34:17.271Z,954.3
2017-01-02T06:35:17.282Z,954.31
2017-01-02T06:36:17.292Z,954.33
2017-01-02T06:37:17.300Z,954.4
2017-01-02T06:38:17.318Z,954.38
2017-01-02T06:39:17.320Z,954.37
2017-01-02T06:40:17.333Z,954.42
2017-01-02T06:41:17.339Z,954.43
2017-01-02T06:42:17.349Z,954.42
2017-01-02T06:43:17.360Z,954.44
2017-01-02T06:44:17.369Z,954.37
2017-01-02T06:45:17.384Z,954.45
2017-01-02T06:46:17.388Z,954.44
2017-01-02T06:47:17.398Z,954.5
2017-01-02T06:48:17.407Z,954.51
2017-01-02T06:49:17.416Z,954.51
2017-01-02T06:50:17.427Z,954.55
2017-01-02T06:51:17.437Z,954.56
2017-01-02T06:52:17.449Z,954.55
2017-01-02T06:53:17.457Z,954.52
2017-01-02T06:54:17.467Z,954.55
2017-01-02T06:55:17.475Z,954.51
2017-01-02T06:56:17.486Z,954.52
2017-01-02T06:57:17.497Z,954.52
2017-01-02T06:58:17.505Z,954.56
2017-01-02T06:59:17.517Z,954.48
2017-01-02T07:00:17.524Z,954.48
2017-01-02T07:01:17.534Z,954.51
2017-01-02T07:02:17.544Z,954.46
2017-01-02T07:03:17.554Z,954.49
2017-01-02T07:04:17.563Z,954.45
2017-01-02T07:05:17.573Z,954.42
2017-01-02T07:06:17.583Z,954.44
2017-01-02T07:07:17.592Z,954.43
2017-01-02T07:08:17.601Z,954.44
2017-01-02T07:09:17.612Z,954.5
2017-01-02T07:10:17.622Z,954.45
2017-01-02T07:11:17.631Z,954.51
2017-01-02T07:12:17.642Z,954.49
2017-01-02T07:13:17.652Z,954.5
2017-01-02T07:14:17.661Z,954.53
2017-01-02T07:15:17.671Z,954.57
2017-01-02T07:16:17.682Z,954.58
2017-01-02T07:17:17.691Z,954.57
2017-01-02T07:18:17.701Z,954.6
2017-01-02T07:19:17.710Z,954.59
2017-01-02T07:20:17.726Z,954.59
2017-01-02T07:21:17.731Z,954.54
2017-01-02T07:22:17.741Z,954.56
2017-01-02T07:23:17.751Z,954.54
2017-01-02T07:24:17.762Z,954.61
2017-01-02T07:25:17.771Z,954.63
2017-01-02T07:26:17.781Z,954.65
2017-01-02T07:27:17.791Z,954.64
2017-01-02T07:28:17.802Z,954.63
2017-01-02T07:29:17.810Z,954.61
2017-01-02T07:30:17.821Z,954.57
2017-01-02T07:31:17.832Z,954.6
2017-01-02T07:32:17.841Z,954.65
2017-01-02T07:33:17.852Z,954.65
2017-01-02T07:34:17.863Z,954.66
2017-01-02T07:35:17.872Z,954.64
2017-01-02T07:36:17.881Z,954.66
2017-01-02T07:37:17.893Z,954.65
2017-01-02T07:38:17.903Z,954.65
2017-01-02T07:39:17.913Z,954.71
2017-01-02T07:40:17.924Z,954.73
2017-01-02T07:41:17.935Z,954.72
2017-01-02T07:42:17.944Z,954.78
2017-01-02T07:43:17.954Z,954.74
2017-01-02T07:44:17.964Z,954.72
2017-01-02T07:45:17.976Z,954.74
2017-01-02T07:46:17.985Z,954.75
2017-01-02T07:47:17.995Z,954.82
2017-01-02T07:48:18.005Z,954.81
2017-01-02T07:49:18.017Z,954.79
2017-01-02T07:50:18.026Z,954.77
2017-01-02T07:51:18.046Z,954.83
2017-01-02T07:52:18.047Z,954.84
2017-01-02T07:53:18.057Z,954.89
2017-01-02T07:54:18.066Z,954.85
2017-01-02T07:55:18.078Z,954.87
2017-01-02T07:56:18.089Z,954.86
2017-01-02T07:57:18.099Z,954.83
2017-01-02T07:58:18.109Z,954.82
2017-01-02T07:59:18.120Z,954.79
2017-01-02T08:00:18.130Z,954.75
2017-01-02T08:01:18.140Z,954.81
2017-01-02T08:02:18.151Z,954.82
2017-01-02T08:03:18.162Z,954.78
2017-01-02T08:04:18.173Z,954.78
2017-01-02T08:05:18.182Z,954.8
2017-01-02T08:06:18.193Z,954.81
2017-01-02T08:07:18.205Z,954.79
2017-01-02T08:08:18.214Z,954.8
2017-01-02T08:09:18.223Z,954.76
2017-01-02T08:10:18.234Z,954.78
2017-01-02T08:11:18.244Z,954.82
2017-01-02T08:12:18.255Z,954.84
2017-01-02T08:13:18.265Z,954.77
2017-01-02T08:14:18.276Z,954.78
2017-01-02T08:15:18.287Z,954.79
2017-01-02T08:16:18.296Z,954.78
2017-01-02T08:17:18.327Z,954.74
2017-01-02T08:18:18.319Z,954.77
2017-01-02T08:19:18.328Z,954.79
2017-01-02T08:20:18.339Z,954.76
2017-01-02T08:21:18.350Z,954.81
2017-01-02T08:22:18.361Z,954.79
2017-01-02T08:23:18.370Z,954.84
2017-01-02T08:24:18.392Z,954.85
2017-01-02T08:25:18.392Z,954.83
2017-01-02T08:26:18.403Z,954.85
2017-01-02T08:27:18.413Z,954.87
2017-01-02T08:28:18.423Z,954.8
2017-01-02T08:29:18.435Z,954.83
2017-01-02T08:30:18.444Z,954.78
2017-01-02T08:31:18.458Z,954.74
2017-01-02T08:32:18.467Z,954.76
2017-01-02T08:33:18.477Z,954.76
2017-01-02T08:34:18.488Z,954.81
2017-01-02T08:35:18.498Z,954.79
2017-01-02T08:36:18.509Z,954.83
2017-01-02T08:37:18.519Z,954.83
2017-01-02T08:38:18.530Z,954.85
2017-01-02T08:39:18.541Z,954.85
2017-01-02T08:40:18.552Z,954.88
2017-01-02T08:41:18.560Z,954.85
2017-01-02T08:42:18.572Z,954.86
2017-01-02T08:43:18.582Z,954.89
2017-01-02T08:44:18.594Z,954.87
2017-01-02T08:45:18.605Z,954.85
2017-01-02T08:46:18.615Z,954.9
2017-01-02T08:47:18.625Z,954.95
2017-01-02T08:48:18.635Z,954.96
2017-01-02T08:49:18.647Z,954.95
2017-01-02T08:50:18.657Z,954.98
2017-01-02T08:51:18.669Z,954.95
2017-01-02T08:52:18.678Z,954.98
2017-01-02T08:53:18.689Z,954.94
2017-01-02T08:54:18.704Z,954.96
2017-01-02T08:55:18.712Z,954.93
2017-01-02T08:56:18.722Z,954.89
2017-01-02T08:57:18.732Z,954.86
2017-01-02T08:58:18.743Z,954.83
2017-01-02T08:59:18.754Z,954.84
2017-01-02T09:00:18.765Z,954.86
2017-01-02T09:01:18.776Z,954.89
2017-01-02T09:02:18.788Z,954.89
2017-01-02T09:03:18.797Z,954.89
2017-01-02T09:04:18.810Z,954.92
2017-01-02T09:05:18.820Z,954.97
2017-01-02T09:06:18.844Z,954.97
2017-01-02T09:07:18.840Z,954.99
2017-01-02T09:08:18.850Z,954.99
2017-01-02T09:09:18.862Z,954.99
2017-01-02T09:10:18.871Z,954.98
2017-01-02T09:11:18.887Z,954.97
2017-01-02T09:12:18.893Z,954.94
2017-01-02T09:13:18.910Z,954.97
2017-01-02T09:14:18.915Z,954.98
2017-01-02T09:15:18.926Z,955.05
2017-01-02T09:16:18.936Z,955.06
2017-01-02T09:17:18.947Z,955.1
2017-01-02T09:18:18.958Z,955.03
2017-01-02T09:19:18.968Z,955
2017-01-02T09:20:18.981Z,954.96
2017-01-02T09:21:18.989Z,954.99
2017-01-02T09:22:19.000Z,955.02
2017-01-02T09:23:19.013Z,955.03
2017-01-02T09:24:19.022Z,954.99
2017-01-02T09:25:19.034Z,954.95
2017-01-02T09:26:19.043Z,954.97
2017-01-02T09:27:19.054Z,954.95
2017-01-02T09:28:19.064Z,954.87
2017-01-02T09:29:19.076Z,954.95
2017-01-02T09:30:19.086Z,954.91
2017-01-02T09:31:19.098Z,954.91
2017-01-02T09:32:19.108Z,954.88
2017-01-02T09:33:19.119Z,954.86
2017-01-02T09:34:19.130Z,954.87
2017-01-02T09:35:19.141Z,954.84
2017-01-02T09:36:19.151Z,954.87
2017-01-02T09:37:19.162Z,954.93
2017-01-02T09:38:19.173Z,954.96
2017-01-02T09:39:19.190Z,955.03
2017-01-02T09:40:19.197Z,954.98
2017-01-02T09:41:19.332Z,955
2017-01-02T09:42:19.218Z,955.06
2017-01-02T09:43:19.227Z,955.06
2017-01-02T09:44:19.238Z,955.09
2017-01-02T09:45:19.250Z,955.06
2017-01-02T09:46:19.261Z,955.08
2017-01-02T09:47:19.272Z,955.06
2017-01-02T09:48:19.283Z,955.08
2017-01-02T09:49:19.296Z,955.14
2017-01-02T09:50:19.306Z,955.12
2017-01-02T09:51:19.317Z,955.06
2017-01-02T09:52:19.328Z,955.06
2017-01-02T09:53:19.339Z,955.04
2017-01-02T09:54:19.350Z,955.07
2017-01-02T09:55:19.361Z,955.04
2017-01-02T09:56:19.397Z,955.01
2017-01-02T09:57:19.385Z,955.01
2017-01-02T09:58:19.395Z,955
2017-01-02T09:59:19.406Z,955.03
2017-01-02T10:00:19.418Z,954.99
2017-01-02T10:01:19.430Z,954.92
2017-01-02T10:02:19.441Z,954.91
2017-01-02T10:03:19.463Z,954.87
2017-01-02T10:04:19.465Z,954.83
2017-01-02T10:05:19.475Z,954.8
2017-01-02T10:06:19.487Z,954.78
2017-01-02T10:07:19.498Z,954.85
2017-01-02T10:08:19.511Z,954.84
2017-01-02T10:09:19.523Z,954.84
2017-01-02T10:10:19.543Z,954.84
2017-01-02T10:11:19.545Z,954.86
2017-01-02T10:12:19.556Z,954.82
2017-01-02T10:13:19.568Z,954.79
2017-01-02T10:14:19.580Z,954.8
2017-01-02T10:15:19.592Z,954.8
2017-01-02T10:16:19.603Z,954.74
2017-01-02T10:17:19.614Z,954.73
2017-01-02T10:18:19.627Z,954.78
2017-01-02T10:19:19.638Z,954.74
2017-01-02T10:20:19.650Z,954.78
2017-01-02T10:21:19.662Z,954.81
2017-01-02T10:22:19.674Z,954.77
2017-01-02T10:23:19.684Z,954.77
2017-01-02T10:24:19.716Z,954.76
2017-01-02T10:25:19.709Z,954.77
2017-01-02T10:26:19.720Z,954.81
2017-01-02T10:27:19.733Z,954.74
2017-01-02T10:28:19.745Z,954.81
2017-01-02T10:29:19.756Z,954.78
2017-01-02T10:30:19.768Z,954.8
2017-01-02T10:31:19.782Z,954.78
2017-01-02T10:32:19.791Z,954.78
2017-01-02T10:33:19.804Z,954.81
2017-01-02T10:34:19.815Z,954.76
2017-01-02T10:35:19.827Z,954.76
2017-01-02T10:36:19.839Z,954.75
2017-01-02T10:37:19.852Z,954.77
2017-01-02T10:38:19.866Z,954.79
2017-01-02T10:39:19.875Z,954.77
2017-01-02T10:40:19.887Z,954.8
2017-01-02T10:41:19.899Z,954.79
2017-01-02T10:42:19.911Z,954.79
2017-01-02T10:43:19.923Z,954.75
2017-01-02T10:44:19.935Z,954.73
2017-01-02T10:45:19.946Z,954.72
2017-01-02T10:46:19.959Z,954.79
2017-01-02T10:47:20.109Z,954.75
2017-01-02T10:48:19.986Z,954.78
2017-01-02T10:49:19.995Z,954.76
2017-01-02T10:50:20.008Z,954.76
2017-01-02T10:51:20.020Z,954.73
2017-01-02T10:52:20.031Z,954.75
2017-01-02T10:53:20.049Z,954.72
2017-01-02T10:54:20.057Z,954.71
2017-01-02T10:55:20.068Z,954.63
2017-01-02T10:56:20.079Z,954.64
2017-01-02T10:57:20.093Z,954.67
2017-01-02T10:58:20.105Z,954.61
2017-01-02T10:59:20.317Z,954.61
2017-01-02T11:00:20.137Z,954.68
2017-01-02T11:01:20.141Z,954.68
2017-01-02T11:02:20.154Z,954.64
2017-01-02T11:03:20.167Z,954.67
2017-01-02T11:04:20.230Z,954.66
2017-01-02T11:05:20.191Z,954.68
2017-01-02T11:06:20.203Z,954.68
2017-01-02T11:07:20.216Z,954.72
2017-01-02T11:08:20.228Z,954.69
2017-01-02T11:09:20.239Z,954.64
2017-01-02T11:10:20.252Z,954.59
2017-01-02T11:11:20.263Z,954.65
2017-01-02T11:12:20.276Z,954.58
2017-01-02T11:13:20.289Z,954.59
2017-01-02T11:14:20.302Z,954.57
2017-01-02T11:15:20.313Z,954.57
2017-01-02T11:16:20.326Z,954.54
2017-01-02T11:17:20.338Z,954.48
2017-01-02T11:18:20.351Z,954.55
2017-01-02T11:19:20.363Z,954.46
2017-01-02T11:20:20.376Z,954.49
2017-01-02T11:21:20.391Z,954.51
2017-01-02T11:22:20.399Z,954.45
2017-01-02T11:23:20.412Z,954.53
2017-01-02T11:24:20.424Z,954.44
2017-01-02T11:25:20.439Z,954.45
2017-01-02T11:26:20.449Z,954.46
2017-01-02T11:27:20.461Z,954.45
2017-01-02T11:28:20.476Z,954.51
2017-01-02T11:29:20.487Z,954.55
2017-01-02T11:30:20.498Z,954.55
2017-01-02T11:31:20.511Z,954.56
2017-01-02T11:32:20.523Z,954.53
2017-01-02T11:33:20.538Z,954.59
2017-01-02T11:34:20.548Z,954.61
2017-01-02T11:35:20.561Z,954.58
2017-01-02T11:36:20.574Z,954.57
2017-01-02T11:37:20.586Z,954.57
2017-01-02T11:38:20.598Z,954.61
2017-01-02T11:39:20.611Z,954.58
2017-01-02T11:40:20.623Z,954.47
2017-01-02T11:41:20.636Z,954.45
2017-01-02T11:42:20.649Z,954.49
2017-01-02T11:43:20.680Z,954.52
2017-01-02T11:44:20.674Z,954.51
2017-01-02T11:45:20.686Z,954.47
2017-01-02T11:46:20.700Z,954.5
2017-01-02T11:47:20.711Z,954.45
2017-01-02T11:48:20.725Z,954.39
2017-01-02T11:49:20.738Z,954.38
2017-01-02T11:50:20.751Z,954.36
2017-01-02T11:51:20.763Z,954.32
2017-01-02T11:52:20.776Z,954.31
2017-01-02T11:53:20.790Z,954.24
2017-01-02T11:54:20.803Z,954.25
2017-01-02T11:55:20.815Z,954.26
2017-01-02T11:56:20.828Z,954.24
2017-01-02T11:57:20.843Z,954.19
2017-01-02T11:58:20.852Z,954.15
2017-01-02T11:59:20.867Z,954.18
2017-01-02T12:00:20.880Z,954.2
2017-01-02T12:01:21.097Z,954.2
2017-01-02T12:02:20.907Z,954.19
2017-01-02T12:03:20.919Z,954.17
2017-01-02T12:04:20.936Z,954.19
2017-01-02T12:05:20.946Z,954.17
2017-01-02T12:06:20.960Z,954.19
2017-01-02T12:07:20.973Z,954.2
2017-01-02T12:08:20.987Z,954.18
2017-01-02T12:09:20.999Z,954.17
2017-01-02T12:10:21.013Z,954.19
2017-01-02T12:11:21.026Z,954.19
2017-01-02T12:12:21.039Z,954.24
2017-01-02T12:13:21.053Z,954.22
2017-01-02T12:14:21.067Z,954.26
2017-01-02T12:15:21.080Z,954.23
2017-01-02T12:16:21.095Z,954.2
2017-01-02T12:17:21.108Z,954.21
2017-01-02T12:18:21.122Z,954.22
2017-01-02T12:19:21.136Z,954.19
2017-01-02T12:20:21.148Z,954.19
2017-01-02T12:21:21.162Z,954.18
2017-01-02T12:22:21.175Z,954.18
2017-01-02T12:23:21.193Z,954.2
2017-01-02T12:24:21.202Z,954.23
2017-01-02T12:25:21.217Z,954.22
2017-01-02T12:26:21.232Z,954.2
2017-01-02T12:27:21.245Z,954.21
2017-01-02T12:28:21.258Z,954.19
2017-01-02T12:29:21.275Z,954.23
2017-01-02T12:30:21.286Z,954.18
2017-01-02T12:31:21.299Z,954.2